Albany, Wisconsin
Current Conditions -  °F | °C
As of 1:35 AM on Wednesday 22 Oct 2014 (Local Time) from KEFT Reporting Station
Clear Clear  
Wind Chill:   Ceiling: Unl
Heat Index:   Visibility: 10mi
Dew Point:   Wind: 5mph
Humidity: 100%   Direction: 60°ENE
Pressure: 30.28"   Gusts: NA
Location:  42.71°N, 89.44°W
Report Text: KEFT 220635Z AUTO 06004KT 10SM CLR 02/02 A3028 RMK AO2
Loading
Personal Weather Stations






























Interactive Weather Map
Tropical Storm Tracking
New forecast layout! Learn more

10-Day Weather Forecast

Advertisements
Track Severe Weather on mobile